sensor_id;sensor_type;location;lat;lon;timestamp;temperature;humidity
20233;DHT22;37438;55.674;13.074;2022-12-29T00:00:26;7.80;99.90
20233;DHT22;37438;55.674;13.074;2022-12-29T00:03:30;7.90;99.90
20233;DHT22;37438;55.674;13.074;2022-12-29T00:06:35;8.00;99.90
20233;DHT22;37438;55.674;13.074;2022-12-29T00:09:39;8.00;99.90
20233;DHT22;37438;55.674;13.074;2022-12-29T00:12:44;8.00;99.90
20233;DHT22;37438;55.674;13.074;2022-12-29T00:16:07;8.00;99.90
20233;DHT22;37438;55.674;13.074;2022-12-29T00:19:12;8.00;99.90
20233;DHT22;37438;55.674;13.074;2022-12-29T00:22:35;7.90;99.90
20233;DHT22;37438;55.674;13.074;2022-12-29T00:26:03;7.70;99.90
20233;DHT22;37438;55.674;13.074;2022-12-29T00:29:27;7.70;99.90
20233;DHT22;37438;55.674;13.074;2022-12-29T00:32:50;7.60;99.90
20233;DHT22;37438;55.674;13.074;2022-12-29T00:36:15;7.80;99.90
20233;DHT22;37438;55.674;13.074;2022-12-29T00:39:21;7.80;99.90
20233;DHT22;37438;55.674;13.074;2022-12-29T00:42:44;7.80;99.90
20233;DHT22;37438;55.674;13.074;2022-12-29T00:46:07;7.60;99.90
20233;DHT22;37438;55.674;13.074;2022-12-29T00:49:16;7.80;99.90
20233;DHT22;37438;55.674;13.074;2022-12-29T00:52:35;7.70;99.90
20233;DHT22;37438;55.674;13.074;2022-12-29T00:55:40;7.50;99.90
20233;DHT22;37438;55.674;13.074;2022-12-29T00:58:44;7.60;99.90
20233;DHT22;37438;55.674;13.074;2022-12-29T01:01:50;7.90;99.90
20233;DHT22;37438;55.674;13.074;2022-12-29T01:04:56;7.70;99.90
20233;DHT22;37438;55.674;13.074;2022-12-29T01:08:00;7.60;99.90
20233;DHT22;37438;55.674;13.074;2022-12-29T01:11:08;7.70;99.90
20233;DHT22;37438;55.674;13.074;2022-12-29T01:14:14;7.70;99.90
20233;DHT22;37438;55.674;13.074;2022-12-29T01:17:18;7.70;99.90
20233;DHT22;37438;55.674;13.074;2022-12-29T01:20:23;7.80;99.90
20233;DHT22;37438;55.674;13.074;2022-12-29T01:23:28;7.60;99.90
20233;DHT22;37438;55.674;13.074;2022-12-29T01:26:32;8.00;99.90
20233;DHT22;37438;55.674;13.074;2022-12-29T01:29:36;7.70;99.90
20233;DHT22;37438;55.674;13.074;2022-12-29T01:32:41;7.80;99.90
20233;DHT22;37438;55.674;13.074;2022-12-29T01:35:46;7.80;99.90
20233;DHT22;37438;55.674;13.074;2022-12-29T01:38:51;7.70;99.90
20233;DHT22;37438;55.674;13.074;2022-12-29T01:41:57;7.80;99.90
20233;DHT22;37438;55.674;13.074;2022-12-29T01:45:05;7.80;99.90
20233;DHT22;37438;55.674;13.074;2022-12-29T01:48:13;8.10;99.90
20233;DHT22;37438;55.674;13.074;2022-12-29T01:51:18;8.10;99.90
20233;DHT22;37438;55.674;13.074;2022-12-29T01:54:27;8.20;99.90
20233;DHT22;37438;55.674;13.074;2022-12-29T01:57:37;8.10;99.90
20233;DHT22;37438;55.674;13.074;2022-12-29T02:00:44;8.10;99.90
20233;DHT22;37438;55.674;13.074;2022-12-29T02:03:49;8.20;99.90
20233;DHT22;37438;55.674;13.074;2022-12-29T02:06:58;8.10;99.90
20233;DHT22;37438;55.674;13.074;2022-12-29T02:10:04;8.10;99.90
20233;DHT22;37438;55.674;13.074;2022-12-29T02:13:10;7.80;99.90
20233;DHT22;37438;55.674;13.074;2022-12-29T02:16:43;8.00;99.90
20233;DHT22;37438;55.674;13.074;2022-12-29T02:27:36;7.80;99.90
20233;DHT22;37438;55.674;13.074;2022-12-29T02:34:27;8.10;99.90
20233;DHT22;37438;55.674;13.074;2022-12-29T02:38:13;7.80;99.90
20233;DHT22;37438;55.674;13.074;2022-12-29T02:51:03;8.00;99.90
20233;DHT22;37438;55.674;13.074;2022-12-29T02:54:08;8.20;99.90
20233;DHT22;37438;55.674;13.074;2022-12-29T02:57:35;8.00;99.90
20233;DHT22;37438;55.674;13.074;2022-12-29T03:10:54;8.00;99.90
20233;DHT22;37438;55.674;13.074;2022-12-29T03:14:17;8.00;99.90
20233;DHT22;37438;55.674;13.074;2022-12-29T03:18:06;8.20;99.90
20233;DHT22;37438;55.674;13.074;2022-12-29T03:28:24;8.00;99.90
20233;DHT22;37438;55.674;13.074;2022-12-29T03:31:29;8.20;99.90
20233;DHT22;37438;55.674;13.074;2022-12-29T03:34:34;8.20;99.90
20233;DHT22;37438;55.674;13.074;2022-12-29T03:37:44;8.10;99.90
20233;DHT22;37438;55.674;13.074;2022-12-29T03:40:57;8.30;99.90
20233;DHT22;37438;55.674;13.074;2022-12-29T03:44:06;8.00;99.90
20233;DHT22;37438;55.674;13.074;2022-12-29T03:47:13;8.00;99.90
20233;DHT22;37438;55.674;13.074;2022-12-29T03:50:19;8.20;99.90
20233;DHT22;37438;55.674;13.074;2022-12-29T03:53:24;8.30;99.90
20233;DHT22;37438;55.674;13.074;2022-12-29T03:56:28;8.20;99.90
20233;DHT22;37438;55.674;13.074;2022-12-29T03:59:33;8.20;99.90
20233;DHT22;37438;55.674;13.074;2022-12-29T04:02:38;8.10;99.90
20233;DHT22;37438;55.674;13.074;2022-12-29T04:05:43;8.30;99.90
20233;DHT22;37438;55.674;13.074;2022-12-29T04:08:47;8.00;99.90
20233;DHT22;37438;55.674;13.074;2022-12-29T04:11:53;8.00;99.90
20233;DHT22;37438;55.674;13.074;2022-12-29T04:14:58;8.00;99.90
20233;DHT22;37438;55.674;13.074;2022-12-29T04:18:02;8.00;99.90
20233;DHT22;37438;55.674;13.074;2022-12-29T04:21:07;8.00;99.90
20233;DHT22;37438;55.674;13.074;2022-12-29T04:24:15;8.00;99.90
20233;DHT22;37438;55.674;13.074;2022-12-29T04:27:22;8.00;99.90
20233;DHT22;37438;55.674;13.074;2022-12-29T04:30:54;8.00;99.90
20233;DHT22;37438;55.674;13.074;2022-12-29T04:34:01;8.20;99.90
20233;DHT22;37438;55.674;13.074;2022-12-29T04:37:06;8.10;99.90
20233;DHT22;37438;55.674;13.074;2022-12-29T04:40:11;8.30;99.90
20233;DHT22;37438;55.674;13.074;2022-12-29T04:43:16;8.40;99.90
20233;DHT22;37438;55.674;13.074;2022-12-29T04:46:40;8.30;99.90
20233;DHT22;37438;55.674;13.074;2022-12-29T04:49:48;8.20;99.90
20233;DHT22;37438;55.674;13.074;2022-12-29T04:53:06;8.20;99.90
20233;DHT22;37438;55.674;13.074;2022-12-29T04:56:10;8.40;99.90
20233;DHT22;37438;55.674;13.074;2022-12-29T04:59:15;8.20;99.90
20233;DHT22;37438;55.674;13.074;2022-12-29T05:02:23;8.20;99.90
20233;DHT22;37438;55.674;13.074;2022-12-29T05:05:28;8.40;99.90
20233;DHT22;37438;55.674;13.074;2022-12-29T05:08:34;8.10;99.90
20233;DHT22;37438;55.674;13.074;2022-12-29T05:11:39;8.30;99.90
20233;DHT22;37438;55.674;13.074;2022-12-29T05:14:45;8.30;99.90
20233;DHT22;37438;55.674;13.074;2022-12-29T05:17:50;8.30;99.90
20233;DHT22;37438;55.674;13.074;2022-12-29T05:20:55;8.30;99.90
20233;DHT22;37438;55.674;13.074;2022-12-29T05:24:00;8.30;99.90
20233;DHT22;37438;55.674;13.074;2022-12-29T05:27:05;8.40;99.90
20233;DHT22;37438;55.674;13.074;2022-12-29T05:30:30;8.40;99.90
20233;DHT22;37438;55.674;13.074;2022-12-29T05:33:35;8.40;99.90
20233;DHT22;37438;55.674;13.074;2022-12-29T05:36:40;8.40;99.90
20233;DHT22;37438;55.674;13.074;2022-12-29T05:39:46;8.30;99.90
20233;DHT22;37438;55.674;13.074;2022-12-29T05:42:51;8.20;99.90
20233;DHT22;37438;55.674;13.074;2022-12-29T05:46:16;8.40;99.90
20233;DHT22;37438;55.674;13.074;2022-12-29T05:49:48;8.10;99.90
20233;DHT22;37438;55.674;13.074;2022-12-29T05:53:08;8.30;99.90
20233;DHT22;37438;55.674;13.074;2022-12-29T05:56:14;8.40;99.90
20233;DHT22;37438;55.674;13.074;2022-12-29T05:59:19;8.40;99.90
20233;DHT22;37438;55.674;13.074;2022-12-29T06:02:24;8.30;99.90
20233;DHT22;37438;55.674;13.074;2022-12-29T06:05:29;8.40;99.90
20233;DHT22;37438;55.674;13.074;2022-12-29T06:08:35;8.50;99.90
20233;DHT22;37438;55.674;13.074;2022-12-29T06:11:39;8.40;99.90
20233;DHT22;37438;55.674;13.074;2022-12-29T06:14:45;8.50;99.90
20233;DHT22;37438;55.674;13.074;2022-12-29T06:17:49;8.70;99.90
20233;DHT22;37438;55.674;13.074;2022-12-29T06:20:58;8.70;99.90
20233;DHT22;37438;55.674;13.074;2022-12-29T06:24:04;8.60;99.90
20233;DHT22;37438;55.674;13.074;2022-12-29T06:27:10;8.70;99.90
20233;DHT22;37438;55.674;13.074;2022-12-29T06:30:15;8.70;99.90
20233;DHT22;37438;55.674;13.074;2022-12-29T06:33:21;8.70;99.90
20233;DHT22;37438;55.674;13.074;2022-12-29T06:36:26;8.70;99.90
20233;DHT22;37438;55.674;13.074;2022-12-29T06:39:30;8.50;99.90
20233;DHT22;37438;55.674;13.074;2022-12-29T06:42:42;8.70;99.90
20233;DHT22;37438;55.674;13.074;2022-12-29T06:46:10;8.50;99.90
20233;DHT22;37438;55.674;13.074;2022-12-29T06:49:15;8.50;99.90
20233;DHT22;37438;55.674;13.074;2022-12-29T06:52:20;8.70;99.90
20233;DHT22;37438;55.674;13.074;2022-12-29T06:55:24;8.40;99.90
20233;DHT22;37438;55.674;13.074;2022-12-29T06:58:29;8.50;99.90
20233;DHT22;37438;55.674;13.074;2022-12-29T07:01:33;8.60;99.90
20233;DHT22;37438;55.674;13.074;2022-12-29T07:04:38;8.60;99.90
20233;DHT22;37438;55.674;13.074;2022-12-29T07:07:43;8.40;99.90
20233;DHT22;37438;55.674;13.074;2022-12-29T07:10:48;8.50;99.90
20233;DHT22;37438;55.674;13.074;2022-12-29T07:13:52;8.60;99.90
20233;DHT22;37438;55.674;13.074;2022-12-29T07:16:57;8.60;99.90
20233;DHT22;37438;55.674;13.074;2022-12-29T07:20:02;8.40;99.90
20233;DHT22;37438;55.674;13.074;2022-12-29T07:23:07;8.60;99.90
20233;DHT22;37438;55.674;13.074;2022-12-29T07:26:14;8.40;99.90
20233;DHT22;37438;55.674;13.074;2022-12-29T07:29:19;8.50;99.90
20233;DHT22;37438;55.674;13.074;2022-12-29T07:32:24;8.50;99.90
20233;DHT22;37438;55.674;13.074;2022-12-29T07:35:28;8.60;99.90
20233;DHT22;37438;55.674;13.074;2022-12-29T07:38:32;8.50;99.90
20233;DHT22;37438;55.674;13.074;2022-12-29T07:41:37;8.60;99.90
20233;DHT22;37438;55.674;13.074;2022-12-29T07:44:42;8.60;99.90
20233;DHT22;37438;55.674;13.074;2022-12-29T07:47:53;8.50;99.90
20233;DHT22;37438;55.674;13.074;2022-12-29T07:50:57;8.60;99.90
20233;DHT22;37438;55.674;13.074;2022-12-29T07:54:02;8.50;99.90
20233;DHT22;37438;55.674;13.074;2022-12-29T07:57:06;8.50;99.90
20233;DHT22;37438;55.674;13.074;2022-12-29T08:00:11;8.60;99.90
20233;DHT22;37438;55.674;13.074;2022-12-29T08:03:16;8.50;99.90
20233;DHT22;37438;55.674;13.074;2022-12-29T08:06:21;8.20;99.90
20233;DHT22;37438;55.674;13.074;2022-12-29T08:09:28;8.20;99.90
20233;DHT22;37438;55.674;13.074;2022-12-29T08:12:32;8.50;99.90
20233;DHT22;37438;55.674;13.074;2022-12-29T08:15:37;8.60;99.90
20233;DHT22;37438;55.674;13.074;2022-12-29T08:18:42;8.40;99.90
20233;DHT22;37438;55.674;13.074;2022-12-29T08:21:46;8.60;99.90
20233;DHT22;37438;55.674;13.074;2022-12-29T08:24:51;8.30;99.90
20233;DHT22;37438;55.674;13.074;2022-12-29T08:27:55;8.20;99.90
20233;DHT22;37438;55.674;13.074;2022-12-29T08:31:01;8.30;99.90
20233;DHT22;37438;55.674;13.074;2022-12-29T08:34:07;8.60;99.90
20233;DHT22;37438;55.674;13.074;2022-12-29T08:37:11;8.70;99.90
20233;DHT22;37438;55.674;13.074;2022-12-29T08:40:16;8.80;99.90
20233;DHT22;37438;55.674;13.074;2022-12-29T08:43:20;8.70;99.90
20233;DHT22;37438;55.674;13.074;2022-12-29T08:46:25;9.00;99.90
20233;DHT22;37438;55.674;13.074;2022-12-29T08:49:29;8.70;99.90
20233;DHT22;37438;55.674;13.074;2022-12-29T08:52:33;9.10;99.90
20233;DHT22;37438;55.674;13.074;2022-12-29T08:55:38;9.10;99.90
20233;DHT22;37438;55.674;13.074;2022-12-29T08:58:42;9.20;99.90
20233;DHT22;37438;55.674;13.074;2022-12-29T09:01:47;9.20;99.90
20233;DHT22;37438;55.674;13.074;2022-12-29T09:04:52;9.20;99.90
20233;DHT22;37438;55.674;13.074;2022-12-29T09:07:56;9.40;99.90
20233;DHT22;37438;55.674;13.074;2022-12-29T09:11:12;9.30;99.90
20233;DHT22;37438;55.674;13.074;2022-12-29T09:14:17;9.40;99.90
20233;DHT22;37438;55.674;13.074;2022-12-29T09:17:22;9.20;99.90
20233;DHT22;37438;55.674;13.074;2022-12-29T09:20:46;9.20;99.90
20233;DHT22;37438;55.674;13.074;2022-12-29T09:23:51;9.30;99.90
20233;DHT22;37438;55.674;13.074;2022-12-29T09:26:55;9.10;99.90
20233;DHT22;37438;55.674;13.074;2022-12-29T09:29:59;9.30;99.90
20233;DHT22;37438;55.674;13.074;2022-12-29T09:33:04;9.20;99.90
20233;DHT22;37438;55.674;13.074;2022-12-29T09:36:08;9.40;99.90
20233;DHT22;37438;55.674;13.074;2022-12-29T09:39:13;9.50;99.90
20233;DHT22;37438;55.674;13.074;2022-12-29T09:42:39;9.40;99.90
20233;DHT22;37438;55.674;13.074;2022-12-29T09:45:51;9.60;99.90
20233;DHT22;37438;55.674;13.074;2022-12-29T09:52:18;9.50;99.90
20233;DHT22;37438;55.674;13.074;2022-12-29T09:55:30;9.40;99.90
20233;DHT22;37438;55.674;13.074;2022-12-29T09:58:40;9.40;99.90
20233;DHT22;37438;55.674;13.074;2022-12-29T10:02:11;9.40;99.90
20233;DHT22;37438;55.674;13.074;2022-12-29T10:08:44;9.50;99.90
20233;DHT22;37438;55.674;13.074;2022-12-29T10:12:17;9.30;99.90
20233;DHT22;37438;55.674;13.074;2022-12-29T10:19:32;9.40;99.90
20233;DHT22;37438;55.674;13.074;2022-12-29T10:26:01;9.50;99.90
20233;DHT22;37438;55.674;13.074;2022-12-29T10:29:18;9.40;99.90
20233;DHT22;37438;55.674;13.074;2022-12-29T10:32:54;9.40;99.90
20233;DHT22;37438;55.674;13.074;2022-12-29T10:36:10;9.30;99.90
20233;DHT22;37438;55.674;13.074;2022-12-29T10:39:37;9.20;99.90
20233;DHT22;37438;55.674;13.074;2022-12-29T10:42:49;9.30;99.90
20233;DHT22;37438;55.674;13.074;2022-12-29T10:45:57;9.50;99.90
20233;DHT22;37438;55.674;13.074;2022-12-29T10:49:06;9.20;99.90
20233;DHT22;37438;55.674;13.074;2022-12-29T10:52:11;9.20;99.90
20233;DHT22;37438;55.674;13.074;2022-12-29T10:55:33;9.20;99.90
20233;DHT22;37438;55.674;13.074;2022-12-29T10:58:39;9.10;99.90
20233;DHT22;37438;55.674;13.074;2022-12-29T11:09:18;9.30;99.90
20233;DHT22;37438;55.674;13.074;2022-12-29T11:12:30;9.90;99.90
20233;DHT22;37438;55.674;13.074;2022-12-29T11:15:48;10.20;99.90
20233;DHT22;37438;55.674;13.074;2022-12-29T11:18:53;10.50;99.90
20233;DHT22;37438;55.674;13.074;2022-12-29T11:22:25;10.50;99.90
20233;DHT22;37438;55.674;13.074;2022-12-29T11:25:29;9.70;99.90
20233;DHT22;37438;55.674;13.074;2022-12-29T11:28:33;9.50;99.90
20233;DHT22;37438;55.674;13.074;2022-12-29T11:34:46;10.70;99.90
20233;DHT22;37438;55.674;13.074;2022-12-29T11:37:56;10.70;99.90
20233;DHT22;37438;55.674;13.074;2022-12-29T11:41:02;9.90;99.90
20233;DHT22;37438;55.674;13.074;2022-12-29T11:44:11;9.70;99.90
20233;DHT22;37438;55.674;13.074;2022-12-29T11:47:26;10.10;99.90
20233;DHT22;37438;55.674;13.074;2022-12-29T11:50:32;10.20;99.90
20233;DHT22;37438;55.674;13.074;2022-12-29T11:56:43;10.50;99.90
20233;DHT22;37438;55.674;13.074;2022-12-29T11:59:56;10.90;99.90
20233;DHT22;37438;55.674;13.074;2022-12-29T12:03:15;10.60;99.90
20233;DHT22;37438;55.674;13.074;2022-12-29T12:06:21;10.50;99.90
20233;DHT22;37438;55.674;13.074;2022-12-29T12:09:36;10.40;99.90
20233;DHT22;37438;55.674;13.074;2022-12-29T12:15:59;10.10;99.90
20233;DHT22;37438;55.674;13.074;2022-12-29T12:19:17;10.10;99.90
20233;DHT22;37438;55.674;13.074;2022-12-29T12:22:33;10.10;99.90
20233;DHT22;37438;55.674;13.074;2022-12-29T12:25:45;10.10;99.90
20233;DHT22;37438;55.674;13.074;2022-12-29T12:28:56;10.40;99.90
20233;DHT22;37438;55.674;13.074;2022-12-29T12:32:22;10.40;99.90
20233;DHT22;37438;55.674;13.074;2022-12-29T12:35:42;10.50;99.90
20233;DHT22;37438;55.674;13.074;2022-12-29T12:52:25;10.20;99.90
20233;DHT22;37438;55.674;13.074;2022-12-29T12:56:03;9.80;99.90
20233;DHT22;37438;55.674;13.074;2022-12-29T13:16:31;9.10;99.90
20233;DHT22;37438;55.674;13.074;2022-12-29T13:23:16;9.00;99.90
20233;DHT22;37438;55.674;13.074;2022-12-29T13:33:16;8.90;99.90
20233;DHT22;37438;55.674;13.074;2022-12-29T13:37:02;8.90;99.90
20233;DHT22;37438;55.674;13.074;2022-12-29T13:40:02;8.90;99.90
20233;DHT22;37438;55.674;13.074;2022-12-29T13:43:08;8.90;99.90
20233;DHT22;37438;55.674;13.074;2022-12-29T13:46:24;8.90;99.90
20233;DHT22;37438;55.674;13.074;2022-12-29T13:49:30;8.90;99.90
20233;DHT22;37438;55.674;13.074;2022-12-29T13:52:36;8.80;99.90
20233;DHT22;37438;55.674;13.074;2022-12-29T13:55:58;8.80;99.90
20233;DHT22;37438;55.674;13.074;2022-12-29T14:09:52;8.60;99.90
20233;DHT22;37438;55.674;13.074;2022-12-29T14:13:09;8.50;99.90
20233;DHT22;37438;55.674;13.074;2022-12-29T14:16:29;8.60;99.90
20233;DHT22;37438;55.674;13.074;2022-12-29T14:19:38;8.50;99.90
20233;DHT22;37438;55.674;13.074;2022-12-29T14:23:16;8.50;99.90
20233;DHT22;37438;55.674;13.074;2022-12-29T14:33:01;8.50;99.90
20233;DHT22;37438;55.674;13.074;2022-12-29T14:36:33;8.50;99.90
20233;DHT22;37438;55.674;13.074;2022-12-29T14:39:39;8.40;99.90
20233;DHT22;37438;55.674;13.074;2022-12-29T14:42:45;8.40;99.90
20233;DHT22;37438;55.674;13.074;2022-12-29T14:46:00;8.50;99.90
20233;DHT22;37438;55.674;13.074;2022-12-29T14:49:15;8.60;99.90
20233;DHT22;37438;55.674;13.074;2022-12-29T14:52:23;8.60;99.90
20233;DHT22;37438;55.674;13.074;2022-12-29T14:55:30;8.70;99.90
20233;DHT22;37438;55.674;13.074;2022-12-29T14:58:46;8.60;99.90
20233;DHT22;37438;55.674;13.074;2022-12-29T15:01:53;8.60;99.90
20233;DHT22;37438;55.674;13.074;2022-12-29T15:05:00;8.50;99.90
20233;DHT22;37438;55.674;13.074;2022-12-29T15:08:06;8.50;99.90
20233;DHT22;37438;55.674;13.074;2022-12-29T15:11:20;8.50;99.90
20233;DHT22;37438;55.674;13.074;2022-12-29T15:14:38;8.40;99.90
20233;DHT22;37438;55.674;13.074;2022-12-29T15:17:43;8.40;99.90
20233;DHT22;37438;55.674;13.074;2022-12-29T15:20:51;8.50;99.90
20233;DHT22;37438;55.674;13.074;2022-12-29T15:23:57;8.40;99.90
20233;DHT22;37438;55.674;13.074;2022-12-29T15:27:03;8.30;99.90
20233;DHT22;37438;55.674;13.074;2022-12-29T15:30:13;8.30;99.90
20233;DHT22;37438;55.674;13.074;2022-12-29T15:33:23;8.30;99.90
20233;DHT22;37438;55.674;13.074;2022-12-29T15:36:38;8.30;99.90
20233;DHT22;37438;55.674;13.074;2022-12-29T15:39:43;8.30;99.90
20233;DHT22;37438;55.674;13.074;2022-12-29T15:43:13;8.30;99.90
20233;DHT22;37438;55.674;13.074;2022-12-29T15:46:21;8.30;99.90
20233;DHT22;37438;55.674;13.074;2022-12-29T15:49:25;8.20;99.90
20233;DHT22;37438;55.674;13.074;2022-12-29T15:52:39;8.20;99.90
20233;DHT22;37438;55.674;13.074;2022-12-29T15:55:44;8.20;99.90
20233;DHT22;37438;55.674;13.074;2022-12-29T15:58:51;8.30;99.90
20233;DHT22;37438;55.674;13.074;2022-12-29T16:01:57;8.30;99.90
20233;DHT22;37438;55.674;13.074;2022-12-29T16:05:08;8.40;99.90
20233;DHT22;37438;55.674;13.074;2022-12-29T16:08:36;8.30;99.90
20233;DHT22;37438;55.674;13.074;2022-12-29T16:12:05;8.30;99.90
20233;DHT22;37438;55.674;13.074;2022-12-29T16:15:13;8.30;99.90
20233;DHT22;37438;55.674;13.074;2022-12-29T16:18:27;8.30;99.90
20233;DHT22;37438;55.674;13.074;2022-12-29T16:21:34;8.30;99.90
20233;DHT22;37438;55.674;13.074;2022-12-29T16:24:40;8.20;99.90
20233;DHT22;37438;55.674;13.074;2022-12-29T16:27:44;8.10;99.90
20233;DHT22;37438;55.674;13.074;2022-12-29T16:31:03;8.20;99.90
20233;DHT22;37438;55.674;13.074;2022-12-29T16:37:33;8.10;99.90
20233;DHT22;37438;55.674;13.074;2022-12-29T16:44:12;8.10;99.90
20233;DHT22;37438;55.674;13.074;2022-12-29T16:47:20;7.90;99.90
20233;DHT22;37438;55.674;13.074;2022-12-29T16:50:26;7.80;99.90
20233;DHT22;37438;55.674;13.074;2022-12-29T16:53:35;7.80;99.90
20233;DHT22;37438;55.674;13.074;2022-12-29T16:56:43;7.70;99.90
20233;DHT22;37438;55.674;13.074;2022-12-29T16:59:51;7.80;99.90
20233;DHT22;37438;55.674;13.074;2022-12-29T17:02:58;7.80;99.90
20233;DHT22;37438;55.674;13.074;2022-12-29T17:06:04;7.70;99.90
20233;DHT22;37438;55.674;13.074;2022-12-29T17:09:28;7.70;99.90
20233;DHT22;37438;55.674;13.074;2022-12-29T17:12:33;7.60;99.90
20233;DHT22;37438;55.674;13.074;2022-12-29T17:15:38;7.60;99.90
20233;DHT22;37438;55.674;13.074;2022-12-29T17:18:42;7.60;99.90
20233;DHT22;37438;55.674;13.074;2022-12-29T17:21:47;7.40;99.90
20233;DHT22;37438;55.674;13.074;2022-12-29T17:24:54;7.40;99.90
20233;DHT22;37438;55.674;13.074;2022-12-29T17:28:21;7.40;99.90
20233;DHT22;37438;55.674;13.074;2022-12-29T17:31:26;7.60;99.90
20233;DHT22;37438;55.674;13.074;2022-12-29T17:34:31;7.50;99.90
20233;DHT22;37438;55.674;13.074;2022-12-29T17:37:36;7.50;99.90
20233;DHT22;37438;55.674;13.074;2022-12-29T17:40:41;7.50;99.90
20233;DHT22;37438;55.674;13.074;2022-12-29T17:43:46;7.40;99.90
20233;DHT22;37438;55.674;13.074;2022-12-29T17:46:50;7.40;99.90
20233;DHT22;37438;55.674;13.074;2022-12-29T17:49:55;7.50;99.90
20233;DHT22;37438;55.674;13.074;2022-12-29T17:53:02;7.50;99.90
20233;DHT22;37438;55.674;13.074;2022-12-29T17:56:07;7.40;99.90
20233;DHT22;37438;55.674;13.074;2022-12-29T17:59:13;7.50;99.90
20233;DHT22;37438;55.674;13.074;2022-12-29T18:02:28;7.40;99.90
20233;DHT22;37438;55.674;13.074;2022-12-29T18:05:33;7.40;99.90
20233;DHT22;37438;55.674;13.074;2022-12-29T18:08:39;7.50;99.90
20233;DHT22;37438;55.674;13.074;2022-12-29T18:11:44;7.50;99.90
20233;DHT22;37438;55.674;13.074;2022-12-29T18:14:49;7.50;99.90
20233;DHT22;37438;55.674;13.074;2022-12-29T18:18:13;7.40;99.90
20233;DHT22;37438;55.674;13.074;2022-12-29T18:21:19;7.40;99.90
20233;DHT22;37438;55.674;13.074;2022-12-29T18:24:25;7.40;99.90
20233;DHT22;37438;55.674;13.074;2022-12-29T18:27:31;7.30;99.90
20233;DHT22;37438;55.674;13.074;2022-12-29T18:30:36;7.30;99.90
20233;DHT22;37438;55.674;13.074;2022-12-29T18:33:41;7.10;99.90
20233;DHT22;37438;55.674;13.074;2022-12-29T18:36:46;7.10;99.90
20233;DHT22;37438;55.674;13.074;2022-12-29T18:39:50;7.10;99.90
20233;DHT22;37438;55.674;13.074;2022-12-29T18:42:55;7.00;99.90
20233;DHT22;37438;55.674;13.074;2022-12-29T18:45:59;7.00;99.90
20233;DHT22;37438;55.674;13.074;2022-12-29T18:49:03;7.00;99.90
20233;DHT22;37438;55.674;13.074;2022-12-29T18:52:11;7.10;99.90
20233;DHT22;37438;55.674;13.074;2022-12-29T18:55:20;7.10;99.90
20233;DHT22;37438;55.674;13.074;2022-12-29T18:58:24;6.90;99.90
20233;DHT22;37438;55.674;13.074;2022-12-29T19:01:37;6.80;99.90
20233;DHT22;37438;55.674;13.074;2022-12-29T19:04:41;7.00;99.90
20233;DHT22;37438;55.674;13.074;2022-12-29T19:07:46;7.00;99.90
20233;DHT22;37438;55.674;13.074;2022-12-29T19:10:50;7.00;99.90
20233;DHT22;37438;55.674;13.074;2022-12-29T19:13:55;7.00;99.90
20233;DHT22;37438;55.674;13.074;2022-12-29T19:16:59;7.00;99.90
20233;DHT22;37438;55.674;13.074;2022-12-29T19:20:04;7.10;99.90
20233;DHT22;37438;55.674;13.074;2022-12-29T19:23:15;7.00;99.90
20233;DHT22;37438;55.674;13.074;2022-12-29T19:26:29;7.00;99.90
20233;DHT22;37438;55.674;13.074;2022-12-29T19:29:34;6.90;99.90
20233;DHT22;37438;55.674;13.074;2022-12-29T19:32:39;7.00;99.90
20233;DHT22;37438;55.674;13.074;2022-12-29T19:35:44;6.90;99.90
20233;DHT22;37438;55.674;13.074;2022-12-29T19:38:48;7.00;99.90
20233;DHT22;37438;55.674;13.074;2022-12-29T19:41:53;7.00;99.90
20233;DHT22;37438;55.674;13.074;2022-12-29T19:45:06;7.00;99.90
20233;DHT22;37438;55.674;13.074;2022-12-29T19:48:17;6.80;99.90
20233;DHT22;37438;55.674;13.074;2022-12-29T19:51:21;6.90;99.90
20233;DHT22;37438;55.674;13.074;2022-12-29T19:54:26;6.80;99.90
20233;DHT22;37438;55.674;13.074;2022-12-29T19:57:30;6.80;99.90
20233;DHT22;37438;55.674;13.074;2022-12-29T20:00:38;6.80;99.90
20233;DHT22;37438;55.674;13.074;2022-12-29T20:03:43;6.80;99.90
20233;DHT22;37438;55.674;13.074;2022-12-29T20:06:47;6.80;99.90
20233;DHT22;37438;55.674;13.074;2022-12-29T20:09:51;6.80;99.90
20233;DHT22;37438;55.674;13.074;2022-12-29T20:12:56;6.80;99.90
20233;DHT22;37438;55.674;13.074;2022-12-29T20:16:04;6.70;99.90
20233;DHT22;37438;55.674;13.074;2022-12-29T20:19:08;6.80;99.90
20233;DHT22;37438;55.674;13.074;2022-12-29T20:22:13;6.70;99.90
20233;DHT22;37438;55.674;13.074;2022-12-29T20:25:18;6.90;99.90
20233;DHT22;37438;55.674;13.074;2022-12-29T20:28:43;6.70;99.90
20233;DHT22;37438;55.674;13.074;2022-12-29T20:31:48;6.80;99.90
20233;DHT22;37438;55.674;13.074;2022-12-29T20:34:53;6.80;99.90
20233;DHT22;37438;55.674;13.074;2022-12-29T20:37:57;6.80;99.90
20233;DHT22;37438;55.674;13.074;2022-12-29T20:41:03;6.80;99.90
20233;DHT22;37438;55.674;13.074;2022-12-29T20:44:08;6.80;99.90
20233;DHT22;37438;55.674;13.074;2022-12-29T20:47:13;6.90;99.90
20233;DHT22;37438;55.674;13.074;2022-12-29T20:50:17;6.90;99.90
20233;DHT22;37438;55.674;13.074;2022-12-29T20:53:22;6.90;99.90
20233;DHT22;37438;55.674;13.074;2022-12-29T20:56:27;6.80;99.90
20233;DHT22;37438;55.674;13.074;2022-12-29T20:59:33;6.90;99.90
20233;DHT22;37438;55.674;13.074;2022-12-29T21:02:37;6.80;99.90
20233;DHT22;37438;55.674;13.074;2022-12-29T21:05:42;6.80;99.90
20233;DHT22;37438;55.674;13.074;2022-12-29T21:08:50;6.80;99.90
20233;DHT22;37438;55.674;13.074;2022-12-29T21:11:56;6.90;99.90
20233;DHT22;37438;55.674;13.074;2022-12-29T21:15:01;7.00;99.90
20233;DHT22;37438;55.674;13.074;2022-12-29T21:18:05;7.10;99.90
20233;DHT22;37438;55.674;13.074;2022-12-29T21:21:21;7.00;99.90
20233;DHT22;37438;55.674;13.074;2022-12-29T21:24:26;6.80;99.90
20233;DHT22;37438;55.674;13.074;2022-12-29T21:27:32;6.80;99.90
20233;DHT22;37438;55.674;13.074;2022-12-29T21:30:37;7.00;99.90
20233;DHT22;37438;55.674;13.074;2022-12-29T21:33:41;6.90;99.90
20233;DHT22;37438;55.674;13.074;2022-12-29T21:36:46;6.90;99.90
20233;DHT22;37438;55.674;13.074;2022-12-29T21:39:50;6.90;99.90
20233;DHT22;37438;55.674;13.074;2022-12-29T21:42:55;7.00;99.90
20233;DHT22;37438;55.674;13.074;2022-12-29T21:45:59;6.90;99.90
20233;DHT22;37438;55.674;13.074;2022-12-29T21:49:04;7.00;99.90
20233;DHT22;37438;55.674;13.074;2022-12-29T21:52:09;6.90;99.90
20233;DHT22;37438;55.674;13.074;2022-12-29T21:55:14;7.00;99.90
20233;DHT22;37438;55.674;13.074;2022-12-29T21:58:18;6.90;99.90
20233;DHT22;37438;55.674;13.074;2022-12-29T22:01:41;6.90;99.90
20233;DHT22;37438;55.674;13.074;2022-12-29T22:05:05;6.80;99.90
20233;DHT22;37438;55.674;13.074;2022-12-29T22:08:28;7.00;99.90